Time;durP1;ratioP1;P1;durP2;ratioP2;P2;SDS_P1;SDS_P2;PMS_P1;PMS_P2;Temp;Humidity;BMP_temperature;BMP_pressure;BME280_temperature;BME280_humidity;BME280_pressure;Samples;Min_cycle;Max_cycle;Signal;HPM_P1;HPM_P2
2021/12/05 00:22:18;;;;;;;5.53;3.63;;;;;;;;;;5019771;28;20084;-73
2021/12/05 00:24:48;;;;;;;8.55;3.63;;;;;;;;;;5018656;28;20026;-78
2021/12/05 00:27:22;;;;;;;7.95;3.08;;;;;;;;;;5019897;28;20060;-79
2021/12/05 00:32:38;;;;;;;8.60;4.13;;;;;;;;;;5021265;28;20030;-74
2021/12/05 00:40:52;;;;;;;4.57;2.70;;;;;;;;;;5015796;28;20115;-75
2021/12/05 01:10:54;;;;;;;5.65;2.95;;;;;;;;;;5012302;28;20053;-73
2021/12/05 01:16:25;;;;;;;8.82;3.05;;;;;;;;;;4985608;28;20044;-74
2021/12/05 01:18:51;;;;;;;4.55;2.75;;;;;;;;;;5019782;28;20026;-75
2021/12/05 01:21:20;;;;;;;4.82;3.00;;;;;;;;;;5020964;28;20026;-77
2021/12/05 01:23:58;;;;;;;3.13;2.33;;;;;;;;;;5018885;28;20022;-78
2021/12/05 01:26:35;;;;;;;6.15;2.83;;;;;;;;;;5017726;28;20113;-74
2021/12/05 01:31:50;;;;;;;8.23;2.83;;;;;;;;;;5015372;28;20030;-76
2021/12/05 02:16:29;;;;;;;12.50;6.93;;;;;;;;;;4983633;28;20038;-75
2021/12/05 02:30:25;;;;;;;5.43;2.70;;;;;;;;;;4982444;28;20094;-78
2021/12/05 02:33:26;;;;;;;13.15;8.57;;;;;;;;;;4973932;28;20109;-77
2021/12/05 02:43:24;;;;;;;9.70;3.75;;;;;;;;;;4982046;28;19910;-77
2021/12/05 02:45:53;;;;;;;9.23;3.35;;;;;;;;;;4981149;28;20114;-73
2021/12/05 02:48:21;;;;;;;4.57;3.10;;;;;;;;;;4992232;28;20634;-75
2021/12/05 02:50:47;;;;;;;6.53;2.90;;;;;;;;;;5020873;28;20022;-77
2021/12/05 02:53:29;;;;;;;4.63;2.70;;;;;;;;;;5020021;28;20064;-77
2021/12/05 02:55:56;;;;;;;5.25;2.00;;;;;;;;;;5018903;28;20034;-74
2021/12/05 03:01:09;;;;;;;3.67;2.63;;;;;;;;;;5020760;28;20026;-77
2021/12/05 03:03:35;;;;;;;7.00;2.85;;;;;;;;;;5014409;28;20022;-79
2021/12/05 03:06:18;;;;;;;11.38;4.55;;;;;;;;;;5020122;28;20037;-77
2021/12/05 03:08:48;;;;;;;7.22;3.20;;;;;;;;;;5022292;28;20025;-78
2021/12/05 03:11:15;;;;;;;5.53;2.58;;;;;;;;;;5027127;28;20492;-78
2021/12/05 03:13:41;;;;;;;7.10;2.33;;;;;;;;;;5031015;28;20484;-77
2021/12/05 03:16:08;;;;;;;12.13;2.67;;;;;;;;;;5019150;28;20523;-75
2021/12/05 03:18:38;;;;;;;5.38;2.28;;;;;;;;;;5020044;28;20050;-74
2021/12/05 03:21:07;;;;;;;6.25;2.10;;;;;;;;;;5029719;28;20450;-76
2021/12/05 03:23:34;;;;;;;4.60;2.22;;;;;;;;;;5023456;28;20030;-77
2021/12/05 03:26:00;;;;;;;4.68;2.28;;;;;;;;;;5020486;28;20033;-77
2021/12/05 03:28:33;;;;;;;5.40;2.13;;;;;;;;;;5023538;28;20038;-75
2021/12/05 03:31:01;;;;;;;5.03;2.40;;;;;;;;;;5020191;28;20029;-74
2021/12/05 03:33:27;;;;;;;6.55;2.25;;;;;;;;;;5017728;28;20484;-77
2021/12/05 03:35:53;;;;;;;7.65;3.15;;;;;;;;;;5020913;28;20108;-76
2021/12/05 03:38:28;;;;;;;5.45;2.30;;;;;;;;;;5033876;28;20021;-75
2021/12/05 03:40:55;;;;;;;6.65;2.38;;;;;;;;;;5016187;28;20068;-78
2021/12/05 03:43:24;;;;;;;7.85;2.40;;;;;;;;;;5018970;28;20052;-73
2021/12/05 03:45:53;;;;;;;4.47;2.15;;;;;;;;;;5017587;28;20034;-76
2021/12/05 03:48:20;;;;;;;6.90;2.50;;;;;;;;;;5014326;28;20491;-78
2021/12/05 03:50:47;;;;;;;7.43;4.75;;;;;;;;;;5019318;28;20033;-75
2021/12/05 03:53:13;;;;;;;7.38;2.42;;;;;;;;;;5019258;28;20388;-76
2021/12/05 03:55:41;;;;;;;6.90;2.17;;;;;;;;;;5018755;28;20557;-77
2021/12/05 03:58:08;;;;;;;9.77;2.75;;;;;;;;;;5018177;28;20025;-76
2021/12/05 04:00:38;;;;;;;7.78;2.20;;;;;;;;;;5019047;28;20026;-77
2021/12/05 04:03:05;;;;;;;7.82;3.05;;;;;;;;;;5013434;28;20033;-78
2021/12/05 04:05:32;;;;;;;8.27;4.30;;;;;;;;;;5017737;28;20084;-76
2021/12/05 04:07:58;;;;;;;13.75;5.25;;;;;;;;;;5020399;28;20029;-76
2021/12/05 04:10:27;;;;;;;7.22;2.78;;;;;;;;;;5023391;28;20034;-76
2021/12/05 04:12:56;;;;;;;6.15;3.05;;;;;;;;;;5019256;28;20069;-77
2021/12/05 04:15:25;;;;;;;12.40;6.72;;;;;;;;;;5016607;28;20041;-73
2021/12/05 04:17:51;;;;;;;7.60;4.07;;;;;;;;;;5019182;28;20038;-74
2021/12/05 04:20:18;;;;;;;9.98;4.15;;;;;;;;;;5019743;28;20057;-78
2021/12/05 04:22:45;;;;;;;9.00;4.57;;;;;;;;;;5018431;28;20033;-76
2021/12/05 04:25:12;;;;;;;5.70;3.33;;;;;;;;;;5016248;28;20034;-74
2021/12/05 04:27:38;;;;;;;15.35;8.65;;;;;;;;;;5016781;28;20022;-75
2021/12/05 04:30:06;;;;;;;5.15;2.50;;;;;;;;;;5018411;28;20026;-76
2021/12/05 04:32:32;;;;;;;9.15;3.97;;;;;;;;;;5018292;28;20037;-74
2021/12/05 04:34:58;;;;;;;10.65;3.35;;;;;;;;;;5016992;28;20061;-77
2021/12/05 04:37:24;;;;;;;9.13;2.97;;;;;;;;;;5018310;28;20022;-74
2021/12/05 04:39:51;;;;;;;5.35;2.58;;;;;;;;;;5017860;28;20384;-78
2021/12/05 04:42:17;;;;;;;5.05;3.30;;;;;;;;;;5016172;28;20033;-75
2021/12/05 04:44:44;;;;;;;6.50;3.28;;;;;;;;;;5018213;28;20105;-77
2021/12/05 04:47:10;;;;;;;5.72;3.20;;;;;;;;;;5016713;28;20100;-74
2021/12/05 04:49:41;;;;;;;10.88;3.08;;;;;;;;;;5017225;28;20056;-76
2021/12/05 04:52:07;;;;;;;6.18;2.80;;;;;;;;;;5015644;28;20125;-78
2021/12/05 04:54:33;;;;;;;10.05;4.43;;;;;;;;;;5016549;28;20373;-77
2021/12/05 04:57:00;;;;;;;10.85;6.30;;;;;;;;;;5017816;28;20272;-77
2021/12/05 04:59:28;;;;;;;11.18;6.03;;;;;;;;;;5017600;28;20034;-77
2021/12/05 05:02:01;;;;;;;6.47;3.10;;;;;;;;;;5015886;28;20109;-77
2021/12/05 05:04:29;;;;;;;6.72;4.07;;;;;;;;;;5015738;28;20029;-77
2021/12/05 05:07:11;;;;;;;9.45;4.88;;;;;;;;;;5018102;28;20037;-78
2021/12/05 05:09:38;;;;;;;10.55;4.80;;;;;;;;;;5018185;28;20032;-76
2021/12/05 05:12:07;;;;;;;9.75;6.50;;;;;;;;;;5016879;28;20036;-74
2021/12/05 05:14:33;;;;;;;7.45;2.95;;;;;;;;;;5023644;28;20036;-77
2021/12/05 05:16:59;;;;;;;4.40;2.53;;;;;;;;;;5026375;28;20084;-77
2021/12/05 05:19:30;;;;;;;5.95;2.35;;;;;;;;;;5017192;28;20034;-74
2021/12/05 05:46:36;;;;;;;6.65;3.00;;;;;;;;;;5016600;28;20111;-77
2021/12/05 05:51:41;;;;;;;4.95;2.25;;;;;;;;;;5022008;28;20033;-75
2021/12/05 05:54:07;;;;;;;6.50;2.28;;;;;;;;;;5019054;28;20082;-76
2021/12/05 05:56:35;;;;;;;4.75;2.15;;;;;;;;;;5020510;28;20388;-76
2021/12/05 05:59:07;;;;;;;5.57;1.95;;;;;;;;;;5021228;28;20448;-75
2021/12/05 06:04:06;;;;;;;5.75;2.92;;;;;;;;;;5021059;28;20392;-78
2021/12/05 06:06:32;;;;;;;9.07;2.70;;;;;;;;;;5020615;28;20033;-78
2021/12/05 06:08:59;;;;;;;14.60;5.68;;;;;;;;;;5018074;28;20057;-77
2021/12/05 06:11:25;;;;;;;14.20;4.35;;;;;;;;;;5015789;28;20037;-77
2021/12/05 06:13:52;;;;;;;18.30;4.07;;;;;;;;;;5035156;28;20033;-77
2021/12/05 06:16:19;;;;;;;7.22;3.42;;;;;;;;;;5008414;28;20033;-75
2021/12/05 06:18:45;;;;;;;15.52;5.15;;;;;;;;;;5023550;28;20060;-78
2021/12/05 06:21:15;;;;;;;22.60;9.32;;;;;;;;;;5033330;28;20369;-73
2021/12/05 06:23:41;;;;;;;17.35;5.00;;;;;;;;;;5020199;28;20598;-75
2021/12/05 06:26:10;;;;;;;17.73;6.10;;;;;;;;;;5021074;28;20107;-76
2021/12/05 06:28:41;;;;;;;6.28;3.08;;;;;;;;;;5019870;28;20030;-77
2021/12/05 06:47:30;;;;;;;6.50;2.47;;;;;;;;;;5018469;28;20052;-78
2021/12/05 06:49:57;;;;;;;9.63;2.83;;;;;;;;;;5020120;28;20101;-74
2021/12/05 06:52:24;;;;;;;10.32;2.83;;;;;;;;;;5018989;28;20026;-77
2021/12/05 06:54:50;;;;;;;4.28;2.17;;;;;;;;;;5017627;28;20140;-77
2021/12/05 06:57:17;;;;;;;3.47;2.08;;;;;;;;;;5019971;28;20077;-75
2021/12/05 06:59:45;;;;;;;4.93;2.50;;;;;;;;;;5019839;28;20026;-75
2021/12/05 07:02:15;;;;;;;7.13;2.70;;;;;;;;;;5020193;28;20026;-78
2021/12/05 07:07:29;;;;;;;5.40;2.92;;;;;;;;;;5019739;28;20468;-78
2021/12/05 07:09:55;;;;;;;6.82;2.97;;;;;;;;;;5020410;28;20056;-77
2021/12/05 07:15:18;;;;;;;6.50;3.00;;;;;;;;;;5019850;28;20060;-74
2021/12/05 07:20:47;;;;;;;5.18;2.72;;;;;;;;;;5021130;28;20045;-76
2021/12/05 07:26:09;;;;;;;4.82;2.25;;;;;;;;;;5019795;28;20084;-76
2021/12/05 07:42:32;;;;;;;3.45;1.95;;;;;;;;;;5016302;28;20029;-75
2021/12/05 07:45:06;;;;;;;3.78;2.80;;;;;;;;;;5019324;28;20025;-77
2021/12/05 07:47:34;;;;;;;9.48;2.88;;;;;;;;;;5018198;28;20034;-77
2021/12/05 07:50:08;;;;;;;5.35;2.00;;;;;;;;;;5018333;28;20048;-76
2021/12/05 07:52:37;;;;;;;5.53;2.30;;;;;;;;;;5008475;28;20123;-74
2021/12/05 07:55:16;;;;;;;5.18;1.98;;;;;;;;;;5019021;28;20053;-74
2021/12/05 07:58:12;;;;;;;4.60;2.33;;;;;;;;;;5017796;28;20168;-75
2021/12/05 08:00:49;;;;;;;4.53;2.28;;;;;;;;;;5007740;28;20048;-74
2021/12/05 08:14:41;;;;;;;3.28;1.88;;;;;;;;;;5015269;28;20028;-73
2021/12/05 08:17:14;;;;;;;6.00;2.22;;;;;;;;;;5015825;28;20028;-76
2021/12/05 08:19:40;;;;;;;3.20;2.88;;;;;;;;;;5016360;28;20326;-75
2021/12/05 08:22:06;;;;;;;10.10;2.38;;;;;;;;;;5016619;28;20041;-76
2021/12/05 08:24:39;;;;;;;3.85;2.28;;;;;;;;;;5016412;28;20025;-76
2021/12/05 08:27:09;;;;;;;7.47;2.20;;;;;;;;;;5018076;28;20061;-76
2021/12/05 08:29:45;;;;;;;3.42;2.08;;;;;;;;;;5018164;28;20026;-74
2021/12/05 08:34:55;;;;;;;7.72;3.15;;;;;;;;;;5019126;28;20392;-76
2021/12/05 09:25:06;;;;;;;5.15;2.58;;;;;;;;;;5018251;28;20060;-77
2021/12/05 09:27:42;;;;;;;5.50;3.20;;;;;;;;;;5028260;28;20037;-77
2021/12/05 10:13:53;;;;;;;5.68;2.80;;;;;;;;;;5035433;28;20552;-75
2021/12/05 10:16:27;;;;;;;;;;;;;;;;;;5021454;28;20030;-76
2021/12/05 10:38:03;;;;;;;10.32;6.55;;;;;;;;;;5021738;28;20095;-76
2021/12/05 10:40:37;;;;;;;15.40;7.80;;;;;;;;;;5019718;28;20026;-78
2021/12/05 10:43:10;;;;;;;8.60;4.20;;;;;;;;;;5022370;28;20032;-75
2021/12/05 10:45:48;;;;;;;7.00;2.55;;;;;;;;;;5021998;28;20028;-77
2021/12/05 10:48:25;;;;;;;6.07;3.08;;;;;;;;;;5022436;28;20122;-72
2021/12/05 10:51:06;;;;;;;7.30;2.92;;;;;;;;;;5023088;28;20034;-76
2021/12/05 10:53:39;;;;;;;4.97;2.92;;;;;;;;;;5024352;28;20026;-73
2021/12/05 10:56:11;;;;;;;5.22;3.10;;;;;;;;;;5025326;28;20033;-72
2021/12/05 10:58:37;;;;;;;4.97;2.80;;;;;;;;;;5031428;28;20029;-76
2021/12/05 11:01:17;;;;;;;7.68;2.70;;;;;;;;;;5044166;28;20067;-76
2021/12/05 11:03:44;;;;;;;4.35;2.85;;;;;;;;;;5043402;28;20021;-77
2021/12/05 11:06:25;;;;;;;12.20;3.13;;;;;;;;;;5043341;28;20025;-74
2021/12/05 11:08:59;;;;;;;5.38;2.90;;;;;;;;;;5030708;28;20026;-75
2021/12/05 11:11:32;;;;;;;6.43;2.95;;;;;;;;;;5021803;28;20101;-75
2021/12/05 11:14:11;;;;;;;5.57;3.28;;;;;;;;;;5021827;28;20026;-73
2021/12/05 11:16:43;;;;;;;9.63;3.97;;;;;;;;;;5019638;28;20026;-74
2021/12/05 11:19:11;;;;;;;6.80;3.38;;;;;;;;;;5019342;28;20160;-74
2021/12/05 11:21:46;;;;;;;6.32;3.25;;;;;;;;;;5022745;28;20029;-75
2021/12/05 11:24:16;;;;;;;6.18;3.05;;;;;;;;;;5022774;28;20038;-78
2021/12/05 11:26:43;;;;;;;5.25;2.75;;;;;;;;;;5004550;28;20023;-73
2021/12/05 11:29:10;;;;;;;5.53;3.15;;;;;;;;;;5003300;28;20023;-75
2021/12/05 11:31:40;;;;;;;6.72;2.72;;;;;;;;;;5006706;28;20034;-75
2021/12/05 11:34:06;;;;;;;7.00;3.42;;;;;;;;;;5006312;28;20038;-74
2021/12/05 11:36:37;;;;;;;10.98;3.80;;;;;;;;;;5006703;28;20026;-75
2021/12/05 11:39:22;;;;;;;6.43;3.20;;;;;;;;;;5006294;28;20050;-75
2021/12/05 11:41:49;;;;;;;7.60;2.95;;;;;;;;;;5030498;28;20430;-73
2021/12/05 11:44:19;;;;;;;5.55;2.75;;;;;;;;;;5047702;28;20022;-74
2021/12/05 11:46:49;;;;;;;6.70;3.72;;;;;;;;;;5045128;28;20124;-73
2021/12/05 11:49:21;;;;;;;4.03;2.47;;;;;;;;;;5046788;28;20114;-73
2021/12/05 11:52:09;;;;;;;7.00;2.25;;;;;;;;;;5047063;28;20033;-73
2021/12/05 11:54:45;;;;;;;5.13;2.50;;;;;;;;;;5046189;28;20033;-72
2021/12/05 11:57:14;;;;;;;3.92;2.33;;;;;;;;;;5048245;28;20056;-73
2021/12/05 11:59:45;;;;;;;6.00;2.42;;;;;;;;;;5047060;28;20021;-78
2021/12/05 12:02:16;;;;;;;7.47;3.10;;;;;;;;;;5044902;28;20026;-74
2021/12/05 12:05:01;;;;;;;5.15;3.10;;;;;;;;;;5047340;28;20025;-73
2021/12/05 12:07:27;;;;;;;5.70;2.43;;;;;;;;;;5048033;28;20431;-76
2021/12/05 12:09:55;;;;;;;4.00;2.35;;;;;;;;;;5047659;28;20442;-73
2021/12/05 12:12:21;;;;;;;7.55;2.83;;;;;;;;;;5048230;28;20049;-75
2021/12/05 12:14:48;;;;;;;5.88;3.00;;;;;;;;;;5043959;28;20029;-73
2021/12/05 12:17:16;;;;;;;5.22;2.80;;;;;;;;;;5026355;28;20022;-73
2021/12/05 12:19:50;;;;;;;4.70;2.72;;;;;;;;;;5027005;28;20014;-74
2021/12/05 12:22:19;;;;;;;5.32;2.80;;;;;;;;;;5027086;28;20022;-74
2021/12/05 12:24:48;;;;;;;4.70;2.22;;;;;;;;;;5027310;28;20026;-73
2021/12/05 12:27:15;;;;;;;5.07;2.70;;;;;;;;;;5028084;28;20033;-74
2021/12/05 12:29:52;;;;;;;6.97;3.20;;;;;;;;;;5045267;28;20067;-73
2021/12/05 12:32:23;;;;;;;6.18;2.53;;;;;;;;;;5026102;28;20026;-73
2021/12/05 12:34:56;;;;;;;8.65;2.70;;;;;;;;;;5027004;28;20029;-73
2021/12/05 12:37:22;;;;;;;6.35;2.50;;;;;;;;;;5035916;28;20349;-73
2021/12/05 12:39:51;;;;;;;4.88;3.00;;;;;;;;;;5046601;28;20067;-72
2021/12/05 12:42:26;;;;;;;5.18;2.50;;;;;;;;;;5046863;28;20025;-73
2021/12/05 12:45:01;;;;;;;5.60;2.40;;;;;;;;;;5046694;28;20018;-73
2021/12/05 12:47:36;;;;;;;7.20;3.25;;;;;;;;;;5039752;28;20022;-73
2021/12/05 12:50:22;;;;;;;7.13;2.72;;;;;;;;;;5026809;28;20045;-75
2021/12/05 12:52:59;;;;;;;4.30;2.20;;;;;;;;;;5012966;28;20120;-74
2021/12/05 12:55:43;;;;;;;4.80;2.20;;;;;;;;;;5025313;28;20026;-73
2021/12/05 12:58:11;;;;;;;3.78;2.25;;;;;;;;;;5025333;28;20021;-73
2021/12/05 13:00:42;;;;;;;3.95;2.80;;;;;;;;;;5025255;28;20022;-74
2021/12/05 13:03:28;;;;;;;7.22;3.40;;;;;;;;;;5025242;28;20101;-73
2021/12/05 13:11:55;;;;;;;23.42;14.15;;;;;;;;;;5026076;28;20040;-75
2021/12/05 13:14:28;;;;;;;52.25;30.20;;;;;;;;;;5021316;28;20056;-76
2021/12/05 13:16:59;;;;;;;6.65;3.72;;;;;;;;;;5021790;28;20057;-74
2021/12/05 13:19:30;;;;;;;36.33;20.60;;;;;;;;;;5022479;28;20026;-73
2021/12/05 13:22:04;;;;;;;33.55;19.60;;;;;;;;;;5022266;28;20381;-77
2021/12/05 13:24:46;;;;;;;25.15;14.32;;;;;;;;;;5022809;28;20111;-76
2021/12/05 13:27:26;;;;;;;9.68;5.90;;;;;;;;;;5022020;28;20488;-77
2021/12/05 13:29:53;;;;;;;8.57;4.30;;;;;;;;;;5023638;28;20103;-73
2021/12/05 13:32:24;;;;;;;10.23;7.00;;;;;;;;;;5022128;28;20034;-77
2021/12/05 13:34:54;;;;;;;7.00;4.22;;;;;;;;;;5021913;28;20500;-78
2021/12/05 13:37:29;;;;;;;9.57;7.03;;;;;;;;;;5024055;28;20439;-75
2021/12/05 13:40:13;;;;;;;8.05;4.03;;;;;;;;;;5023865;28;20469;-72
2021/12/05 13:42:47;;;;;;;12.38;5.18;;;;;;;;;;5024200;28;20022;-73
2021/12/05 13:45:20;;;;;;;7.05;4.30;;;;;;;;;;5023264;28;20037;-75
2021/12/05 13:47:53;;;;;;;5.57;3.47;;;;;;;;;;5024892;28;20041;-73
2021/12/05 13:50:21;;;;;;;8.75;5.18;;;;;;;;;;5024173;28;20080;-72
2021/12/05 13:53:07;;;;;;;6.20;3.92;;;;;;;;;;5025723;28;20034;-73
2021/12/05 13:55:58;;;;;;;5.88;4.13;;;;;;;;;;5022403;28;20038;-73
2021/12/05 13:58:40;;;;;;;7.47;4.10;;;;;;;;;;5025330;28;20101;-72
2021/12/05 14:01:29;;;;;;;7.53;4.15;;;;;;;;;;5025219;28;20025;-74
2021/12/05 14:03:58;;;;;;;11.48;4.10;;;;;;;;;;5024792;28;20017;-72
2021/12/05 14:06:35;;;;;;;27.08;13.52;;;;;;;;;;5026319;28;20038;-72
2021/12/05 14:09:01;;;;;;;29.70;13.25;;;;;;;;;;5027193;28;20034;-75
2021/12/05 14:11:28;;;;;;;38.60;21.60;;;;;;;;;;5027910;28;20030;-73
2021/12/05 14:13:54;;;;;;;30.45;21.85;;;;;;;;;;5035122;28;20081;-72
2021/12/05 14:16:20;;;;;;;20.20;14.48;;;;;;;;;;5035660;28;20052;-72
2021/12/05 14:18:47;;;;;;;12.25;9.25;;;;;;;;;;5029396;28;20385;-74
2021/12/05 14:21:24;;;;;;;9.93;6.57;;;;;;;;;;5030106;28;20028;-73
2021/12/05 14:23:52;;;;;;;6.93;4.90;;;;;;;;;;5028582;28;20032;-72
2021/12/05 14:26:25;;;;;;;10.32;5.47;;;;;;;;;;5029610;28;20017;-73
2021/12/05 14:29:05;;;;;;;10.52;7.13;;;;;;;;;;5029252;28;20049;-72
2021/12/05 14:31:35;;;;;;;12.52;5.85;;;;;;;;;;5029214;28;20030;-75
2021/12/05 14:34:02;;;;;;;6.75;3.88;;;;;;;;;;5027573;28;20030;-74
2021/12/05 14:36:36;;;;;;;7.53;3.85;;;;;;;;;;5026664;28;20386;-78
2021/12/05 14:39:14;;;;;;;6.85;3.70;;;;;;;;;;5028304;28;20393;-74
2021/12/05 14:41:41;;;;;;;9.95;4.78;;;;;;;;;;5027509;28;20404;-75
2021/12/05 14:44:17;;;;;;;;;;;;;;;;;;;;;
2021/12/05 14:46:52;;;;;;;6.55;3.30;;;;;;;;;;5028307;28;20105;-75
2021/12/05 14:49:19;;;;;;;8.95;4.15;;;;;;;;;;5027640;28;20050;-76
2021/12/05 14:51:46;;;;;;;5.03;2.90;;;;;;;;;;5029478;28;20056;-74
2021/12/05 14:54:20;;;;;;;5.45;3.17;;;;;;;;;;5046122;28;20025;-74
2021/12/05 14:56:46;;;;;;;7.55;4.07;;;;;;;;;;5046949;28;20029;-78
2021/12/05 14:59:14;;;;;;;4.95;2.70;;;;;;;;;;5046458;28;20026;-74
2021/12/05 15:01:42;;;;;;;6.35;3.35;;;;;;;;;;5043832;28;20111;-77
2021/12/05 15:04:10;;;;;;;4.90;2.42;;;;;;;;;;5027468;28;20045;-74
2021/12/05 15:06:42;;;;;;;5.22;3.42;;;;;;;;;;5024401;28;20436;-77
2021/12/05 15:09:17;;;;;;;6.68;4.05;;;;;;;;;;5034083;28;20030;-75
2021/12/05 15:12:19;;;;;;;6.93;3.42;;;;;;;;;;5026379;28;20049;-74
2021/12/05 15:14:47;;;;;;;8.82;4.43;;;;;;;;;;5001047;28;20041;-75
2021/12/05 15:17:16;;;;;;;23.85;10.50;;;;;;;;;;5025932;28;20033;-72
2021/12/05 15:19:44;;;;;;;45.97;20.60;;;;;;;;;;5027356;28;20021;-71
2021/12/05 15:22:12;;;;;;;59.20;21.55;;;;;;;;;;5027229;28;20026;-72
2021/12/05 15:24:38;;;;;;;35.05;12.88;;;;;;;;;;5033625;28;20017;-72
2021/12/05 15:27:11;;;;;;;32.40;11.35;;;;;;;;;;5048490;28;20038;-74
2021/12/05 15:29:37;;;;;;;16.17;6.95;;;;;;;;;;5048601;28;20025;-72
2021/12/05 15:32:03;;;;;;;42.05;18.05;;;;;;;;;;5048548;28;20395;-73
2021/12/05 15:34:31;;;;;;;18.70;9.63;;;;;;;;;;5048385;28;20060;-76
2021/12/05 15:36:59;;;;;;;14.98;7.57;;;;;;;;;;5047172;28;20052;-72
2021/12/05 15:39:34;;;;;;;12.85;6.70;;;;;;;;;;5048996;28;20456;-72
2021/12/05 15:42:01;;;;;;;11.45;6.68;;;;;;;;;;5048275;28;20028;-72
2021/12/05 15:44:36;;;;;;;9.65;5.88;;;;;;;;;;5047990;28;20036;-72
2021/12/05 15:47:11;;;;;;;7.78;4.15;;;;;;;;;;5048114;28;20024;-72
2021/12/05 15:49:58;;;;;;;10.65;6.95;;;;;;;;;;5046626;28;20384;-72
2021/12/05 15:52:41;;;;;;;9.48;7.07;;;;;;;;;;5048726;28;20026;-72
2021/12/05 15:55:11;;;;;;;13.73;10.18;;;;;;;;;;5047910;28;20030;-72
2021/12/05 15:57:38;;;;;;;14.95;9.05;;;;;;;;;;5048784;28;20045;-76
2021/12/05 16:00:08;;;;;;;9.43;5.70;;;;;;;;;;5048183;28;20033;-71
2021/12/05 16:02:34;;;;;;;10.60;5.00;;;;;;;;;;5047987;28;20044;-72
2021/12/05 16:05:00;;;;;;;7.07;4.38;;;;;;;;;;5046699;28;20052;-72
2021/12/05 16:07:28;;;;;;;5.18;3.33;;;;;;;;;;5047742;28;20052;-72
2021/12/05 16:10:07;;;;;;;90.78;51.00;;;;;;;;;;5048188;28;20553;-72
2021/12/05 16:12:37;;;;;;;104.40;48.80;;;;;;;;;;5047722;28;20036;-72
2021/12/05 16:15:03;;;;;;;62.65;32.28;;;;;;;;;;5048248;28;20061;-72
2021/12/05 16:17:30;;;;;;;37.33;19.25;;;;;;;;;;5047201;28;20052;-72
2021/12/05 16:20:09;;;;;;;21.92;9.88;;;;;;;;;;5047916;28;20044;-71
2021/12/05 16:22:54;;;;;;;26.27;13.98;;;;;;;;;;5047524;28;20033;-71
2021/12/05 16:25:20;;;;;;;23.70;16.58;;;;;;;;;;5046291;28;20083;-72
2021/12/05 16:27:51;;;;;;;22.83;18.40;;;;;;;;;;5047574;28;20033;-72
2021/12/05 16:30:25;;;;;;;14.38;11.35;;;;;;;;;;5046959;28;20100;-76
2021/12/05 16:32:51;;;;;;;18.05;13.85;;;;;;;;;;5046018;28;20052;-77
2021/12/05 16:35:24;;;;;;;22.65;15.70;;;;;;;;;;5047210;28;20030;-72
2021/12/05 16:37:50;;;;;;;11.40;8.32;;;;;;;;;;5045411;28;20022;-72
2021/12/05 16:40:16;;;;;;;18.83;10.25;;;;;;;;;;5047175;28;20032;-72
2021/12/05 16:42:44;;;;;;;42.58;26.15;;;;;;;;;;5047391;28;20022;-72
2021/12/05 16:45:11;;;;;;;36.60;20.45;;;;;;;;;;5046861;28;20107;-72
2021/12/05 16:47:37;;;;;;;10.70;9.52;;;;;;;;;;5046737;28;20026;-74
2021/12/05 16:50:06;;;;;;;43.50;21.00;;;;;;;;;;5046815;28;20030;-73
2021/12/05 16:52:48;;;;;;;94.50;51.90;;;;;;;;;;5047282;28;20037;-75
2021/12/05 16:55:29;;;;;;;53.08;30.10;;;;;;;;;;5046997;28;20068;-72
2021/12/05 16:58:15;;;;;;;51.05;27.55;;;;;;;;;;5045955;28;20026;-72
2021/12/05 17:00:42;;;;;;;18.67;13.00;;;;;;;;;;5046374;28;20037;-73
2021/12/05 17:03:10;;;;;;;13.77;10.15;;;;;;;;;;5046504;28;20029;-73
2021/12/05 17:06:15;;;;;;;14.65;10.95;;;;;;;;;;5046314;28;20037;-72
2021/12/05 17:08:45;;;;;;;30.30;20.55;;;;;;;;;;4985452;28;20033;-72
2021/12/05 17:11:12;;;;;;;36.90;18.08;;;;;;;;;;4986240;28;20023;-71
2021/12/05 17:13:38;;;;;;;26.00;13.63;;;;;;;;;;5015741;28;20041;-75
2021/12/05 17:16:18;;;;;;;26.75;14.35;;;;;;;;;;5048309;28;20029;-72
2021/12/05 17:18:57;;;;;;;34.67;21.27;;;;;;;;;;5045464;28;20064;-72
2021/12/05 17:21:26;;;;;;;43.72;25.40;;;;;;;;;;5046570;28;20087;-72
2021/12/05 17:23:55;;;;;;;43.58;28.30;;;;;;;;;;5047049;28;20022;-73
2021/12/05 17:26:40;;;;;;;32.92;21.27;;;;;;;;;;5047336;28;20029;-72
2021/12/05 17:29:08;;;;;;;34.60;20.40;;;;;;;;;;5046666;28;20068;-71
2021/12/05 17:31:45;;;;;;;43.38;28.42;;;;;;;;;;5045597;28;20372;-73
2021/12/05 17:34:20;;;;;;;55.75;33.00;;;;;;;;;;5046678;28;20460;-72
2021/12/05 17:36:54;;;;;;;50.55;31.02;;;;;;;;;;5046957;28;20036;-73
2021/12/05 17:39:22;;;;;;;44.22;27.02;;;;;;;;;;5046182;28;20049;-72
2021/12/05 17:41:50;;;;;;;85.82;38.70;;;;;;;;;;5038257;28;20022;-72
2021/12/05 17:44:44;;;;;;;37.25;24.13;;;;;;;;;;5029690;28;20034;-72
2021/12/05 17:47:11;;;;;;;38.33;20.95;;;;;;;;;;5030705;28;20022;-76
2021/12/05 17:49:56;;;;;;;187.05;76.30;;;;;;;;;;5029083;28;20042;-74
2021/12/05 17:52:24;;;;;;;213.45;90.22;;;;;;;;;;5030917;28;20057;-73
2021/12/05 17:55:07;;;;;;;201.23;85.80;;;;;;;;;;5030919;28;20022;-73
2021/12/05 17:57:56;;;;;;;96.45;46.13;;;;;;;;;;5029358;28;20056;-74
2021/12/05 18:00:36;;;;;;;68.95;37.63;;;;;;;;;;5030579;28;20054;-73
2021/12/05 18:03:05;;;;;;;41.78;25.25;;;;;;;;;;5030130;28;20073;-74
2021/12/05 18:05:49;;;;;;;36.75;24.85;;;;;;;;;;5029687;28;20034;-72
2021/12/05 18:08:19;;;;;;;31.05;17.88;;;;;;;;;;5030022;28;20033;-72
2021/12/05 18:10:49;;;;;;;62.72;32.50;;;;;;;;;;5029887;28;20041;-72
2021/12/05 18:13:25;;;;;;;107.57;61.30;;;;;;;;;;5030103;28;20026;-72
2021/12/05 18:16:03;;;;;;;54.92;28.08;;;;;;;;;;5031192;28;20026;-72
2021/12/05 18:18:30;;;;;;;45.20;22.25;;;;;;;;;;5030702;28;20022;-72
2021/12/05 18:20:56;;;;;;;79.65;39.05;;;;;;;;;;5030002;28;20029;-72
2021/12/05 18:23:26;;;;;;;42.22;21.35;;;;;;;;;;5029520;28;20103;-72
2021/12/05 18:25:52;;;;;;;37.25;21.25;;;;;;;;;;5029389;28;20061;-73
2021/12/05 18:28:19;;;;;;;48.50;24.88;;;;;;;;;;5028510;28;20399;-74
2021/12/05 18:30:45;;;;;;;121.30;50.13;;;;;;;;;;5029463;28;20209;-72
2021/12/05 18:33:12;;;;;;;43.40;29.63;;;;;;;;;;5029367;28;20022;-72
2021/12/05 18:35:39;;;;;;;25.27;18.48;;;;;;;;;;5030022;28;20026;-71
2021/12/05 18:38:08;;;;;;;111.28;58.42;;;;;;;;;;5029966;28;20049;-71
2021/12/05 18:41:02;;;;;;;171.30;95.45;;;;;;;;;;5030722;28;20097;-72
2021/12/05 18:43:30;;;;;;;93.80;54.03;;;;;;;;;;5030600;28;20489;-72
2021/12/05 18:46:05;;;;;;;49.17;33.88;;;;;;;;;;5028736;28;20041;-71
2021/12/05 18:48:35;;;;;;;55.30;36.90;;;;;;;;;;5029687;28;20042;-73
2021/12/05 18:51:02;;;;;;;50.60;34.80;;;;;;;;;;5027829;28;20036;-72
2021/12/05 18:53:28;;;;;;;50.47;33.58;;;;;;;;;;5029164;28;20025;-73
2021/12/05 18:55:55;;;;;;;37.58;26.20;;;;;;;;;;5028385;28;20025;-73
2021/12/05 18:58:23;;;;;;;46.85;32.95;;;;;;;;;;5028875;28;20081;-72
2021/12/05 19:06:50;;;;;;;31.50;24.35;;;;;;;;;;5029728;28;20048;-72
2021/12/05 19:09:39;;;;;;;49.50;33.42;;;;;;;;;;5028553;28;20028;-72
2021/12/05 19:12:05;;;;;;;59.35;39.08;;;;;;;;;;5029995;28;20082;-71
2021/12/05 19:14:39;;;;;;;51.08;32.78;;;;;;;;;;5030348;28;20037;-72
2021/12/05 19:17:05;;;;;;;37.05;26.63;;;;;;;;;;5029523;28;20030;-72
2021/12/05 19:19:32;;;;;;;50.50;29.77;;;;;;;;;;5028969;28;20457;-72
2021/12/05 19:21:59;;;;;;;90.60;71.90;;;;;;;;;;5029535;28;20098;-71
2021/12/05 19:24:27;;;;;;;48.85;36.85;;;;;;;;;;5028930;28;20490;-72
2021/12/05 19:26:54;;;;;;;39.53;30.40;;;;;;;;;;5028621;28;20049;-71
2021/12/05 19:29:21;;;;;;;32.97;19.00;;;;;;;;;;5029894;28;20022;-72
2021/12/05 19:31:48;;;;;;;53.25;31.17;;;;;;;;;;5029020;28;20049;-74
2021/12/05 19:34:15;;;;;;;43.75;24.20;;;;;;;;;;5028823;28;20030;-76
2021/12/05 19:36:50;;;;;;;36.95;21.33;;;;;;;;;;5028892;28;20033;-73
2021/12/05 19:39:19;;;;;;;32.72;19.92;;;;;;;;;;5029243;28;20022;-72
2021/12/05 19:41:45;;;;;;;45.90;24.58;;;;;;;;;;5028960;28;20014;-73
2021/12/05 19:44:11;;;;;;;40.22;22.85;;;;;;;;;;5029230;28;20021;-72
2021/12/05 19:46:38;;;;;;;39.65;23.63;;;;;;;;;;5029343;28;20033;-72
2021/12/05 19:49:05;;;;;;;121.53;65.00;;;;;;;;;;5028408;28;20045;-74
2021/12/05 19:51:32;;;;;;;62.60;35.70;;;;;;;;;;5028058;28;20034;-72
2021/12/05 19:53:58;;;;;;;133.18;70.72;;;;;;;;;;5027597;28;20022;-72
2021/12/05 19:56:25;;;;;;;96.72;54.33;;;;;;;;;;5028454;28;20041;-72
2021/12/05 19:58:51;;;;;;;35.97;21.05;;;;;;;;;;5029503;28;20021;-72
2021/12/05 20:01:24;;;;;;;29.67;20.25;;;;;;;;;;5028800;28;20078;-73
2021/12/05 20:03:50;;;;;;;35.33;21.75;;;;;;;;;;5029959;28;20022;-72
2021/12/05 20:06:26;;;;;;;69.18;33.95;;;;;;;;;;5028987;28;20058;-74
2021/12/05 20:08:52;;;;;;;93.82;45.10;;;;;;;;;;5027792;28;20097;-74
2021/12/05 20:11:19;;;;;;;41.45;21.88;;;;;;;;;;5029075;28;20034;-73
2021/12/05 20:13:46;;;;;;;26.17;14.85;;;;;;;;;;5027794;28;20088;-72
2021/12/05 20:16:12;;;;;;;32.60;18.63;;;;;;;;;;5025247;28;20461;-78
2021/12/05 20:18:39;;;;;;;43.80;27.08;;;;;;;;;;5028246;28;20033;-72
2021/12/05 20:21:07;;;;;;;40.70;25.60;;;;;;;;;;5027321;28;20467;-72
2021/12/05 20:23:34;;;;;;;35.53;18.98;;;;;;;;;;5027328;28;20026;-76
2021/12/05 20:26:01;;;;;;;34.25;24.45;;;;;;;;;;5033643;28;20017;-73
2021/12/05 20:28:28;;;;;;;32.88;20.80;;;;;;;;;;5027753;28;20025;-73
2021/12/05 20:31:00;;;;;;;24.48;17.15;;;;;;;;;;5027306;28;20094;-72